sensor_id;sensor_type;location;lat;lon;timestamp;pressure;altitude;pressure_sealevel;temperature;humidity
76229;BME280;65021;53.174;18.160;2024-01-11T00:00:02;102077.81;;;-3.53;83.61
76229;BME280;65021;53.174;18.160;2024-01-11T00:02:31;102069.27;;;-3.53;83.49
76229;BME280;65021;53.174;18.160;2024-01-11T00:04:57;102067.16;;;-3.54;83.77
76229;BME280;65021;53.174;18.160;2024-01-11T00:07:24;102063.92;;;-3.54;83.85
76229;BME280;65021;53.174;18.160;2024-01-11T00:09:50;102048.55;;;-3.53;83.73
76229;BME280;65021;53.174;18.160;2024-01-11T00:12:17;102044.56;;;-3.54;83.97
76229;BME280;65021;53.174;18.160;2024-01-11T00:14:43;102045.27;;;-3.54;84.22
76229;BME280;65021;53.174;18.160;2024-01-11T00:17:10;102040.80;;;-3.53;84.13
76229;BME280;65021;53.174;18.160;2024-01-11T00:19:36;102030.59;;;-3.52;84.40
76229;BME280;65021;53.174;18.160;2024-01-11T00:22:03;102035.75;;;-3.51;84.61
76229;BME280;65021;53.174;18.160;2024-01-11T00:24:30;102043.29;;;-3.51;84.51
76229;BME280;65021;53.174;18.160;2024-01-11T00:26:56;102039.83;;;-3.49;84.78
76229;BME280;65021;53.174;18.160;2024-01-11T00:29:23;102029.59;;;-3.48;84.55
76229;BME280;65021;53.174;18.160;2024-01-11T00:31:50;102023.97;;;-3.45;84.59
76229;BME280;65021;53.174;18.160;2024-01-11T00:34:16;102005.65;;;-3.43;84.63
76229;BME280;65021;53.174;18.160;2024-01-11T00:36:43;101993.55;;;-3.42;84.80
76229;BME280;65021;53.174;18.160;2024-01-11T00:39:09;101988.05;;;-3.40;84.82
76229;BME280;65021;53.174;18.160;2024-01-11T00:41:38;101980.48;;;-3.38;85.06
76229;BME280;65021;53.174;18.160;2024-01-11T00:44:04;101983.14;;;-3.36;85.02
76229;BME280;65021;53.174;18.160;2024-01-11T00:46:31;101992.55;;;-3.33;84.83
76229;BME280;65021;53.174;18.160;2024-01-11T00:48:58;101991.77;;;-3.30;84.82
76229;BME280;65021;53.174;18.160;2024-01-11T00:51:25;101994.75;;;-3.27;84.76
76229;BME280;65021;53.174;18.160;2024-01-11T00:53:52;101990.78;;;-3.24;84.91
76229;BME280;65021;53.174;18.160;2024-01-11T00:56:18;101987.20;;;-3.21;84.99
76229;BME280;65021;53.174;18.160;2024-01-11T00:58:45;101984.67;;;-3.19;84.93
76229;BME280;65021;53.174;18.160;2024-01-11T01:01:12;101984.95;;;-3.17;84.83
76229;BME280;65021;53.174;18.160;2024-01-11T01:03:40;101992.53;;;-3.14;84.71
76229;BME280;65021;53.174;18.160;2024-01-11T01:06:06;102005.91;;;-3.11;84.80
76229;BME280;65021;53.174;18.160;2024-01-11T01:08:33;102006.63;;;-3.07;84.77
76229;BME280;65021;53.174;18.160;2024-01-11T01:10:59;102003.77;;;-3.03;84.64
76229;BME280;65021;53.174;18.160;2024-01-11T01:13:26;102001.56;;;-2.99;84.89
76229;BME280;65021;53.174;18.160;2024-01-11T01:15:52;101997.75;;;-2.96;84.87
76229;BME280;65021;53.174;18.160;2024-01-11T01:18:19;101996.46;;;-2.92;84.80
76229;BME280;65021;53.174;18.160;2024-01-11T01:20:46;102003.16;;;-2.90;84.67
76229;BME280;65021;53.174;18.160;2024-01-11T01:23:12;102006.45;;;-2.87;84.75
76229;BME280;65021;53.174;18.160;2024-01-11T01:25:39;102005.40;;;-2.84;84.76
76229;BME280;65021;53.174;18.160;2024-01-11T01:28:05;101998.34;;;-2.82;84.75
76229;BME280;65021;53.174;18.160;2024-01-11T01:30:32;101997.96;;;-2.80;84.94
76229;BME280;65021;53.174;18.160;2024-01-11T01:32:58;101993.55;;;-2.77;84.75
76229;BME280;65021;53.174;18.160;2024-01-11T01:35:25;101990.05;;;-2.76;84.94
76229;BME280;65021;53.174;18.160;2024-01-11T01:37:52;102002.52;;;-2.74;84.77
76229;BME280;65021;53.174;18.160;2024-01-11T01:40:18;102003.40;;;-2.72;85.05
76229;BME280;65021;53.174;18.160;2024-01-11T01:42:45;102003.06;;;-2.70;85.03
76229;BME280;65021;53.174;18.160;2024-01-11T01:45:14;102004.05;;;-2.68;84.92
76229;BME280;65021;53.174;18.160;2024-01-11T01:47:42;102013.99;;;-2.66;84.95
76229;BME280;65021;53.174;18.160;2024-01-11T01:50:10;102025.52;;;-2.62;85.01
76229;BME280;65021;53.174;18.160;2024-01-11T01:52:39;102017.65;;;-2.59;85.02
76229;BME280;65021;53.174;18.160;2024-01-11T01:55:06;102021.23;;;-2.55;85.05
76229;BME280;65021;53.174;18.160;2024-01-11T01:57:36;102027.98;;;-2.51;84.81
76229;BME280;65021;53.174;18.160;2024-01-11T02:00:04;102021.45;;;-2.48;84.74
76229;BME280;65021;53.174;18.160;2024-01-11T02:02:33;102016.53;;;-2.44;84.78
76229;BME280;65021;53.174;18.160;2024-01-11T02:05:01;102020.03;;;-2.39;84.81
76229;BME280;65021;53.174;18.160;2024-01-11T02:07:28;102021.34;;;-2.36;84.84
76229;BME280;65021;53.174;18.160;2024-01-11T02:09:55;102017.58;;;-2.34;84.82
76229;BME280;65021;53.174;18.160;2024-01-11T02:12:23;102013.14;;;-2.31;84.96
76229;BME280;65021;53.174;18.160;2024-01-11T02:14:53;102014.52;;;-2.28;84.77
76229;BME280;65021;53.174;18.160;2024-01-11T02:17:20;102016.83;;;-2.25;84.60
76229;BME280;65021;53.174;18.160;2024-01-11T02:19:47;102015.55;;;-2.22;84.74
76229;BME280;65021;53.174;18.160;2024-01-11T02:22:35;102016.67;;;-2.19;84.61
76229;BME280;65021;53.174;18.160;2024-01-11T02:25:02;102012.15;;;-2.16;84.76
76229;BME280;65021;53.174;18.160;2024-01-11T02:27:28;102004.70;;;-2.13;84.75
76229;BME280;65021;53.174;18.160;2024-01-11T02:29:55;101991.52;;;-2.11;84.75
76229;BME280;65021;53.174;18.160;2024-01-11T02:32:22;101986.31;;;-2.09;84.75
76229;BME280;65021;53.174;18.160;2024-01-11T02:34:49;101984.71;;;-2.09;84.74
76229;BME280;65021;53.174;18.160;2024-01-11T02:37:16;101982.61;;;-2.08;84.70
76229;BME280;65021;53.174;18.160;2024-01-11T02:39:43;101978.66;;;-2.07;84.85
76229;BME280;65021;53.174;18.160;2024-01-11T02:42:09;101983.31;;;-2.06;84.66
76229;BME280;65021;53.174;18.160;2024-01-11T02:44:36;101985.23;;;-2.05;84.76
76229;BME280;65021;53.174;18.160;2024-01-11T02:47:03;101980.91;;;-2.04;84.68
76229;BME280;65021;53.174;18.160;2024-01-11T02:49:29;101976.44;;;-2.02;84.58
76229;BME280;65021;53.174;18.160;2024-01-11T02:51:56;101970.22;;;-2.01;84.65
76229;BME280;65021;53.174;18.160;2024-01-11T02:54:22;101959.80;;;-2.00;84.77
76229;BME280;65021;53.174;18.160;2024-01-11T02:56:49;101958.07;;;-1.97;84.61
76229;BME280;65021;53.174;18.160;2024-01-11T02:59:16;101960.59;;;-1.95;84.79
76229;BME280;65021;53.174;18.160;2024-01-11T03:01:42;101941.69;;;-1.94;84.75
76229;BME280;65021;53.174;18.160;2024-01-11T03:04:09;101939.37;;;-1.92;84.74
76229;BME280;65021;53.174;18.160;2024-01-11T03:06:36;101937.66;;;-1.90;84.68
76229;BME280;65021;53.174;18.160;2024-01-11T03:09:02;101924.07;;;-1.89;84.59
76229;BME280;65021;53.174;18.160;2024-01-11T03:11:29;101922.50;;;-1.86;84.74
76229;BME280;65021;53.174;18.160;2024-01-11T03:13:55;101916.77;;;-1.85;84.83
76229;BME280;65021;53.174;18.160;2024-01-11T03:16:22;101901.06;;;-1.83;84.83
76229;BME280;65021;53.174;18.160;2024-01-11T03:18:48;101897.38;;;-1.81;84.97
76229;BME280;65021;53.174;18.160;2024-01-11T03:21:15;101903.11;;;-1.79;84.89
76229;BME280;65021;53.174;18.160;2024-01-11T03:23:42;101898.03;;;-1.77;84.92
76229;BME280;65021;53.174;18.160;2024-01-11T03:26:13;101896.30;;;-1.75;85.02
76229;BME280;65021;53.174;18.160;2024-01-11T03:28:40;101909.67;;;-1.73;85.07
76229;BME280;65021;53.174;18.160;2024-01-11T03:31:10;101906.45;;;-1.71;84.95
76229;BME280;65021;53.174;18.160;2024-01-11T03:33:36;101906.94;;;-1.69;84.95
76229;BME280;65021;53.174;18.160;2024-01-11T03:36:09;101914.16;;;-1.66;85.05
76229;BME280;65021;53.174;18.160;2024-01-11T03:38:36;101916.66;;;-1.64;85.18
76229;BME280;65021;53.174;18.160;2024-01-11T03:41:09;101904.33;;;-1.63;85.07
76229;BME280;65021;53.174;18.160;2024-01-11T03:43:37;101896.04;;;-1.60;85.17
76229;BME280;65021;53.174;18.160;2024-01-11T03:46:04;101894.02;;;-1.59;85.13
76229;BME280;65021;53.174;18.160;2024-01-11T03:48:30;101884.42;;;-1.57;85.33
76229;BME280;65021;53.174;18.160;2024-01-11T03:50:57;101883.41;;;-1.55;85.27
76229;BME280;65021;53.174;18.160;2024-01-11T03:53:24;101885.10;;;-1.53;85.26
76229;BME280;65021;53.174;18.160;2024-01-11T03:55:51;101870.18;;;-1.51;85.21
76229;BME280;65021;53.174;18.160;2024-01-11T03:58:17;101861.98;;;-1.48;85.35
76229;BME280;65021;53.174;18.160;2024-01-11T04:00:44;101857.80;;;-1.47;85.27
76229;BME280;65021;53.174;18.160;2024-01-11T04:03:10;101844.26;;;-1.44;85.42
76229;BME280;65021;53.174;18.160;2024-01-11T04:05:37;101832.77;;;-1.43;85.40
76229;BME280;65021;53.174;18.160;2024-01-11T04:08:07;101821.71;;;-1.42;85.49
76229;BME280;65021;53.174;18.160;2024-01-11T04:10:33;101815.94;;;-1.40;85.36
76229;BME280;65021;53.174;18.160;2024-01-11T04:13:00;101810.52;;;-1.38;85.45
76229;BME280;65021;53.174;18.160;2024-01-11T04:15:26;101804.15;;;-1.36;85.50
76229;BME280;65021;53.174;18.160;2024-01-11T04:17:53;101806.64;;;-1.34;85.60
76229;BME280;65021;53.174;18.160;2024-01-11T04:20:19;101818.84;;;-1.33;85.57
76229;BME280;65021;53.174;18.160;2024-01-11T04:22:46;101823.73;;;-1.31;85.54
76229;BME280;65021;53.174;18.160;2024-01-11T04:25:12;101829.50;;;-1.29;85.46
76229;BME280;65021;53.174;18.160;2024-01-11T04:27:39;101833.87;;;-1.27;85.63
76229;BME280;65021;53.174;18.160;2024-01-11T04:30:07;101822.52;;;-1.25;85.53
76229;BME280;65021;53.174;18.160;2024-01-11T04:32:33;101817.74;;;-1.22;85.49
76229;BME280;65021;53.174;18.160;2024-01-11T04:35:00;101802.20;;;-1.19;85.61
76229;BME280;65021;53.174;18.160;2024-01-11T04:37:27;101800.37;;;-1.16;85.77
76229;BME280;65021;53.174;18.160;2024-01-11T04:39:53;101805.14;;;-1.11;85.68
76229;BME280;65021;53.174;18.160;2024-01-11T04:42:20;101812.48;;;-1.08;85.72
76229;BME280;65021;53.174;18.160;2024-01-11T04:44:46;101806.45;;;-1.05;85.47
76229;BME280;65021;53.174;18.160;2024-01-11T04:47:13;101810.85;;;-1.01;85.50
76229;BME280;65021;53.174;18.160;2024-01-11T04:49:39;101812.39;;;-0.98;85.50
76229;BME280;65021;53.174;18.160;2024-01-11T04:52:06;101815.98;;;-0.94;85.47
76229;BME280;65021;53.174;18.160;2024-01-11T04:54:32;101813.86;;;-0.92;85.48
76229;BME280;65021;53.174;18.160;2024-01-11T04:56:59;101803.48;;;-0.89;85.32
76229;BME280;65021;53.174;18.160;2024-01-11T04:59:26;101807.23;;;-0.86;85.23
76229;BME280;65021;53.174;18.160;2024-01-11T05:01:52;101801.06;;;-0.83;85.24
76229;BME280;65021;53.174;18.160;2024-01-11T05:04:19;101806.73;;;-0.80;85.30
76229;BME280;65021;53.174;18.160;2024-01-11T05:06:45;101809.08;;;-0.78;85.19
76229;BME280;65021;53.174;18.160;2024-01-11T05:09:12;101805.73;;;-0.75;85.36
76229;BME280;65021;53.174;18.160;2024-01-11T05:11:40;101804.35;;;-0.73;85.26
76229;BME280;65021;53.174;18.160;2024-01-11T05:14:06;101805.18;;;-0.71;85.27
76229;BME280;65021;53.174;18.160;2024-01-11T05:16:33;101805.09;;;-0.69;85.02
76229;BME280;65021;53.174;18.160;2024-01-11T05:19:01;101797.91;;;-0.66;85.01
76229;BME280;65021;53.174;18.160;2024-01-11T05:21:28;101791.31;;;-0.64;85.05
76229;BME280;65021;53.174;18.160;2024-01-11T05:23:55;101795.10;;;-0.61;85.13
76229;BME280;65021;53.174;18.160;2024-01-11T05:26:21;101792.64;;;-0.60;84.90
76229;BME280;65021;53.174;18.160;2024-01-11T05:28:49;101796.27;;;-0.60;85.03
76229;BME280;65021;53.174;18.160;2024-01-11T05:31:15;101810.70;;;-0.58;84.91
76229;BME280;65021;53.174;18.160;2024-01-11T05:33:43;101798.48;;;-0.58;84.99
76229;BME280;65021;53.174;18.160;2024-01-11T05:36:09;101802.87;;;-0.58;84.99
76229;BME280;65021;53.174;18.160;2024-01-11T05:38:38;101802.81;;;-0.57;84.94
76229;BME280;65021;53.174;18.160;2024-01-11T05:41:05;101803.02;;;-0.55;85.07
76229;BME280;65021;53.174;18.160;2024-01-11T05:43:32;101789.67;;;-0.54;84.83
76229;BME280;65021;53.174;18.160;2024-01-11T05:45:58;101795.67;;;-0.53;85.10
76229;BME280;65021;53.174;18.160;2024-01-11T05:48:25;101801.60;;;-0.51;84.84
76229;BME280;65021;53.174;18.160;2024-01-11T05:50:51;101799.91;;;-0.49;84.88
76229;BME280;65021;53.174;18.160;2024-01-11T05:53:18;101789.30;;;-0.48;84.87
76229;BME280;65021;53.174;18.160;2024-01-11T05:55:47;101777.36;;;-0.47;84.81
76229;BME280;65021;53.174;18.160;2024-01-11T05:58:14;101772.45;;;-0.46;84.93
76229;BME280;65021;53.174;18.160;2024-01-11T06:00:40;101767.96;;;-0.45;84.71
76229;BME280;65021;53.174;18.160;2024-01-11T06:03:08;101767.18;;;-0.43;84.75
76229;BME280;65021;53.174;18.160;2024-01-11T06:05:34;101771.10;;;-0.42;84.75
76229;BME280;65021;53.174;18.160;2024-01-11T06:08:01;101768.13;;;-0.41;84.91
76229;BME280;65021;53.174;18.160;2024-01-11T06:10:28;101764.61;;;-0.40;84.65
76229;BME280;65021;53.174;18.160;2024-01-11T06:12:54;101762.14;;;-0.39;84.75
76229;BME280;65021;53.174;18.160;2024-01-11T06:15:22;101761.45;;;-0.38;84.73
76229;BME280;65021;53.174;18.160;2024-01-11T06:17:49;101762.69;;;-0.38;84.76
76229;BME280;65021;53.174;18.160;2024-01-11T06:20:16;101757.27;;;-0.37;84.62
76229;BME280;65021;53.174;18.160;2024-01-11T06:22:42;101759.94;;;-0.37;84.70
76229;BME280;65021;53.174;18.160;2024-01-11T06:25:09;101772.23;;;-0.36;84.72
76229;BME280;65021;53.174;18.160;2024-01-11T06:27:36;101772.83;;;-0.35;84.63
76229;BME280;65021;53.174;18.160;2024-01-11T06:30:03;101776.13;;;-0.35;84.61
76229;BME280;65021;53.174;18.160;2024-01-11T06:32:30;101772.45;;;-0.33;84.64
76229;BME280;65021;53.174;18.160;2024-01-11T06:34:56;101779.09;;;-0.32;84.65
76229;BME280;65021;53.174;18.160;2024-01-11T06:37:23;101776.18;;;-0.32;84.55
76229;BME280;65021;53.174;18.160;2024-01-11T06:39:49;101770.59;;;-0.32;84.48
76229;BME280;65021;53.174;18.160;2024-01-11T06:42:16;101758.38;;;-0.31;84.72
76229;BME280;65021;53.174;18.160;2024-01-11T06:44:42;101757.44;;;-0.32;84.40
76229;BME280;65021;53.174;18.160;2024-01-11T06:47:09;101758.96;;;-0.32;84.52
76229;BME280;65021;53.174;18.160;2024-01-11T06:49:38;101757.89;;;-0.32;84.48
76229;BME280;65021;53.174;18.160;2024-01-11T06:52:06;101750.12;;;-0.32;84.68
76229;BME280;65021;53.174;18.160;2024-01-11T06:54:32;101757.77;;;-0.32;84.68
76229;BME280;65021;53.174;18.160;2024-01-11T06:56:59;101752.29;;;-0.31;84.75
76229;BME280;65021;53.174;18.160;2024-01-11T06:59:26;101754.63;;;-0.31;84.58
76229;BME280;65021;53.174;18.160;2024-01-11T07:01:52;101756.59;;;-0.31;84.81
76229;BME280;65021;53.174;18.160;2024-01-11T07:04:19;101763.48;;;-0.30;84.73
76229;BME280;65021;53.174;18.160;2024-01-11T07:06:47;101769.47;;;-0.29;84.67
76229;BME280;65021;53.174;18.160;2024-01-11T07:09:13;101759.45;;;-0.28;84.67
76229;BME280;65021;53.174;18.160;2024-01-11T07:11:40;101750.63;;;-0.28;84.71
76229;BME280;65021;53.174;18.160;2024-01-11T07:14:07;101753.72;;;-0.27;84.74
76229;BME280;65021;53.174;18.160;2024-01-11T07:16:34;101752.98;;;-0.26;84.75
76229;BME280;65021;53.174;18.160;2024-01-11T07:19:02;101744.90;;;-0.25;84.93
76229;BME280;65021;53.174;18.160;2024-01-11T07:21:28;101738.15;;;-0.23;84.81
76229;BME280;65021;53.174;18.160;2024-01-11T07:24:01;101738.31;;;-0.21;84.78
76229;BME280;65021;53.174;18.160;2024-01-11T07:26:27;101726.41;;;-0.20;84.89
76229;BME280;65021;53.174;18.160;2024-01-11T07:28:54;101720.08;;;-0.17;84.91
76229;BME280;65021;53.174;18.160;2024-01-11T07:31:21;101720.36;;;-0.15;84.83
76229;BME280;65021;53.174;18.160;2024-01-11T07:33:48;101710.09;;;-0.12;84.92
76229;BME280;65021;53.174;18.160;2024-01-11T07:36:15;101710.48;;;-0.09;84.94
76229;BME280;65021;53.174;18.160;2024-01-11T07:38:41;101725.69;;;-0.07;84.88
76229;BME280;65021;53.174;18.160;2024-01-11T07:41:08;101724.73;;;-0.04;84.95
76229;BME280;65021;53.174;18.160;2024-01-11T07:43:34;101732.59;;;-0.02;84.81
76229;BME280;65021;53.174;18.160;2024-01-11T07:46:01;101740.84;;;0.00;84.78
76229;BME280;65021;53.174;18.160;2024-01-11T07:48:29;101753.80;;;0.03;84.81
76229;BME280;65021;53.174;18.160;2024-01-11T07:50:56;101754.52;;;0.06;84.76
76229;BME280;65021;53.174;18.160;2024-01-11T07:53:23;101744.25;;;0.09;84.77
76229;BME280;65021;53.174;18.160;2024-01-11T07:55:49;101745.61;;;0.12;84.80
76229;BME280;65021;53.174;18.160;2024-01-11T07:58:17;101746.98;;;0.15;84.75
76229;BME280;65021;53.174;18.160;2024-01-11T08:00:44;101756.33;;;0.18;84.60
76229;BME280;65021;53.174;18.160;2024-01-11T08:03:11;101755.66;;;0.22;84.75
76229;BME280;65021;53.174;18.160;2024-01-11T08:05:37;101746.65;;;0.25;84.66
76229;BME280;65021;53.174;18.160;2024-01-11T08:08:04;101744.56;;;0.28;84.63
76229;BME280;65021;53.174;18.160;2024-01-11T08:10:31;101734.61;;;0.31;84.54
76229;BME280;65021;53.174;18.160;2024-01-11T08:12:57;101735.38;;;0.33;84.62
76229;BME280;65021;53.174;18.160;2024-01-11T08:15:25;101746.39;;;0.35;84.57
76229;BME280;65021;53.174;18.160;2024-01-11T08:17:52;101749.48;;;0.36;84.76
76229;BME280;65021;53.174;18.160;2024-01-11T08:20:19;101750.04;;;0.37;84.59
76229;BME280;65021;53.174;18.160;2024-01-11T08:22:46;101753.98;;;0.38;84.47
76229;BME280;65021;53.174;18.160;2024-01-11T08:25:13;101742.42;;;0.40;84.48
76229;BME280;65021;53.174;18.160;2024-01-11T08:27:40;101743.70;;;0.43;84.59
76229;BME280;65021;53.174;18.160;2024-01-11T08:30:07;101738.55;;;0.46;84.51
76229;BME280;65021;53.174;18.160;2024-01-11T08:32:34;101731.56;;;0.48;84.55
76229;BME280;65021;53.174;18.160;2024-01-11T08:35:05;101735.91;;;0.52;84.39
76229;BME280;65021;53.174;18.160;2024-01-11T08:37:33;101747.02;;;0.56;84.42
76229;BME280;65021;53.174;18.160;2024-01-11T08:39:59;101754.84;;;0.61;84.46
76229;BME280;65021;53.174;18.160;2024-01-11T08:42:26;101749.95;;;0.63;84.19
76229;BME280;65021;53.174;18.160;2024-01-11T08:44:52;101753.63;;;0.68;84.31
76229;BME280;65021;53.174;18.160;2024-01-11T08:47:19;101761.62;;;0.71;84.22
76229;BME280;65021;53.174;18.160;2024-01-11T08:49:46;101766.77;;;0.72;84.23
76229;BME280;65021;53.174;18.160;2024-01-11T08:52:12;101769.36;;;0.73;84.09
76229;BME280;65021;53.174;18.160;2024-01-11T08:54:39;101769.39;;;0.74;84.23
76229;BME280;65021;53.174;18.160;2024-01-11T08:57:06;101771.77;;;0.74;84.08
76229;BME280;65021;53.174;18.160;2024-01-11T08:59:32;101771.95;;;0.76;84.18
76229;BME280;65021;53.174;18.160;2024-01-11T09:01:59;101774.80;;;0.76;84.01
76229;BME280;65021;53.174;18.160;2024-01-11T09:04:25;101775.92;;;0.77;84.13
76229;BME280;65021;53.174;18.160;2024-01-11T09:06:54;101785.81;;;0.78;83.87
76229;BME280;65021;53.174;18.160;2024-01-11T09:09:22;101787.22;;;0.79;83.94
76229;BME280;65021;53.174;18.160;2024-01-11T09:11:49;101796.73;;;0.81;84.00
76229;BME280;65021;53.174;18.160;2024-01-11T09:14:16;101792.05;;;0.82;83.78
76229;BME280;65021;53.174;18.160;2024-01-11T09:16:42;101791.17;;;0.84;83.92
76229;BME280;65021;53.174;18.160;2024-01-11T09:19:11;101795.84;;;0.86;83.78
76229;BME280;65021;53.174;18.160;2024-01-11T09:21:38;101785.17;;;0.87;83.78
76229;BME280;65021;53.174;18.160;2024-01-11T09:24:05;101781.86;;;0.90;83.77
76229;BME280;65021;53.174;18.160;2024-01-11T09:26:31;101774.17;;;0.92;83.63
76229;BME280;65021;53.174;18.160;2024-01-11T09:28:58;101776.86;;;0.94;83.63
76229;BME280;65021;53.174;18.160;2024-01-11T09:31:25;101774.99;;;0.96;83.59
76229;BME280;65021;53.174;18.160;2024-01-11T09:33:51;101779.17;;;0.98;83.57
76229;BME280;65021;53.174;18.160;2024-01-11T09:36:19;101772.70;;;1.00;83.58
76229;BME280;65021;53.174;18.160;2024-01-11T09:38:45;101772.20;;;1.03;83.59
76229;BME280;65021;53.174;18.160;2024-01-11T09:41:13;101771.34;;;1.07;83.45
76229;BME280;65021;53.174;18.160;2024-01-11T09:43:43;101771.33;;;1.10;83.36
76229;BME280;65021;53.174;18.160;2024-01-11T09:46:12;101774.42;;;1.13;83.36
76229;BME280;65021;53.174;18.160;2024-01-11T09:48:40;101779.80;;;1.17;83.28
76229;BME280;65021;53.174;18.160;2024-01-11T09:51:10;101778.08;;;1.24;83.29
76229;BME280;65021;53.174;18.160;2024-01-11T09:53:40;101771.05;;;1.28;83.22
76229;BME280;65021;53.174;18.160;2024-01-11T09:56:09;101768.49;;;1.31;83.09
76229;BME280;65021;53.174;18.160;2024-01-11T09:58:36;101770.25;;;1.32;82.99
76229;BME280;65021;53.174;18.160;2024-01-11T10:01:09;101766.23;;;1.30;82.77
76229;BME280;65021;53.174;18.160;2024-01-11T10:03:41;101757.45;;;1.28;82.82
76229;BME280;65021;53.174;18.160;2024-01-11T10:06:08;101755.40;;;1.25;82.91
76229;BME280;65021;53.174;18.160;2024-01-11T10:08:36;101756.39;;;1.25;82.75
76229;BME280;65021;53.174;18.160;2024-01-11T10:11:03;101764.55;;;1.31;82.94
76229;BME280;65021;53.174;18.160;2024-01-11T10:13:30;101764.37;;;1.35;82.63
76229;BME280;65021;53.174;18.160;2024-01-11T10:16:05;101763.41;;;1.37;82.55
76229;BME280;65021;53.174;18.160;2024-01-11T10:18:32;101766.08;;;1.43;82.61
76229;BME280;65021;53.174;18.160;2024-01-11T10:20:59;101763.46;;;1.42;82.54
76229;BME280;65021;53.174;18.160;2024-01-11T10:23:26;101762.20;;;1.43;82.43
76229;BME280;65021;53.174;18.160;2024-01-11T10:25:58;101760.34;;;1.46;82.56
76229;BME280;65021;53.174;18.160;2024-01-11T10:28:25;101762.16;;;1.48;82.49
76229;BME280;65021;53.174;18.160;2024-01-11T10:30:51;101756.20;;;1.46;82.47
76229;BME280;65021;53.174;18.160;2024-01-11T10:33:22;101758.98;;;1.46;82.39
76229;BME280;65021;53.174;18.160;2024-01-11T10:35:49;101755.06;;;1.43;82.27
76229;BME280;65021;53.174;18.160;2024-01-11T10:38:20;101751.81;;;1.41;82.28
76229;BME280;65021;53.174;18.160;2024-01-11T10:40:47;101754.77;;;1.41;82.31
76229;BME280;65021;53.174;18.160;2024-01-11T10:43:19;101746.42;;;1.39;82.23
76229;BME280;65021;53.174;18.160;2024-01-11T10:45:51;101751.20;;;1.41;82.28
76229;BME280;65021;53.174;18.160;2024-01-11T10:48:21;101754.48;;;1.42;82.23
76229;BME280;65021;53.174;18.160;2024-01-11T10:50:54;101753.91;;;1.45;82.33
76229;BME280;65021;53.174;18.160;2024-01-11T10:56:12;101762.65;;;1.48;82.19
76229;BME280;65021;53.174;18.160;2024-01-11T10:58:40;101760.36;;;1.49;82.12
76229;BME280;65021;53.174;18.160;2024-01-11T11:01:12;101749.91;;;1.48;82.19
76229;BME280;65021;53.174;18.160;2024-01-11T11:03:40;101741.66;;;1.49;82.12
76229;BME280;65021;53.174;18.160;2024-01-11T11:06:10;101740.61;;;1.51;82.03
76229;BME280;65021;53.174;18.160;2024-01-11T11:08:39;101732.11;;;1.51;82.12
76229;BME280;65021;53.174;18.160;2024-01-11T11:11:06;101722.27;;;1.54;82.12
76229;BME280;65021;53.174;18.160;2024-01-11T11:13:34;101710.09;;;1.57;81.99
76229;BME280;65021;53.174;18.160;2024-01-11T11:16:03;101710.63;;;1.61;82.02
76229;BME280;65021;53.174;18.160;2024-01-11T11:18:31;101713.99;;;1.65;81.85
76229;BME280;65021;53.174;18.160;2024-01-11T11:20:59;101710.60;;;1.67;81.78
76229;BME280;65021;53.174;18.160;2024-01-11T11:23:26;101708.98;;;1.66;81.59
76229;BME280;65021;53.174;18.160;2024-01-11T11:25:54;101704.92;;;1.64;81.56
76229;BME280;65021;53.174;18.160;2024-01-11T11:28:25;101705.70;;;1.63;81.47
76229;BME280;65021;53.174;18.160;2024-01-11T11:30:52;101700.83;;;1.66;81.59
76229;BME280;65021;53.174;18.160;2024-01-11T11:33:21;101698.59;;;1.64;81.56
76229;BME280;65021;53.174;18.160;2024-01-11T11:35:49;101703.60;;;1.64;81.56
76229;BME280;65021;53.174;18.160;2024-01-11T11:38:22;101702.96;;;1.67;81.70
76229;BME280;65021;53.174;18.160;2024-01-11T11:40:51;101704.50;;;1.70;81.55
76229;BME280;65021;53.174;18.160;2024-01-11T11:43:20;101705.24;;;1.74;81.52
76229;BME280;65021;53.174;18.160;2024-01-11T11:45:48;101703.09;;;1.77;81.23
76229;BME280;65021;53.174;18.160;2024-01-11T11:51:05;101701.85;;;1.83;81.36
76229;BME280;65021;53.174;18.160;2024-01-11T11:53:36;101696.20;;;1.87;81.32
76229;BME280;65021;53.174;18.160;2024-01-11T11:56:04;101692.46;;;1.87;81.08
76229;BME280;65021;53.174;18.160;2024-01-11T11:58:34;101685.45;;;1.82;80.77
76229;BME280;65021;53.174;18.160;2024-01-11T12:01:01;101681.23;;;1.81;80.87
76229;BME280;65021;53.174;18.160;2024-01-11T12:03:32;101684.67;;;1.79;80.67
76229;BME280;65021;53.174;18.160;2024-01-11T12:06:00;101675.28;;;1.78;80.84
76229;BME280;65021;53.174;18.160;2024-01-11T12:08:27;101674.23;;;1.78;80.76
76229;BME280;65021;53.174;18.160;2024-01-11T12:10:54;101678.67;;;1.81;80.68
76229;BME280;65021;53.174;18.160;2024-01-11T12:13:20;101673.87;;;1.81;80.49
76229;BME280;65021;53.174;18.160;2024-01-11T12:15:47;101674.35;;;1.82;80.48
76229;BME280;65021;53.174;18.160;2024-01-11T12:18:14;101668.24;;;1.85;80.74
76229;BME280;65021;53.174;18.160;2024-01-11T12:20:40;101658.60;;;1.90;80.63
76229;BME280;65021;53.174;18.160;2024-01-11T12:23:07;101657.91;;;1.91;80.57
76229;BME280;65021;53.174;18.160;2024-01-11T12:25:35;101648.77;;;1.96;80.41
76229;BME280;65021;53.174;18.160;2024-01-11T12:28:02;101649.53;;;2.02;80.47
76229;BME280;65021;53.174;18.160;2024-01-11T12:30:28;101658.35;;;2.04;80.32
76229;BME280;65021;53.174;18.160;2024-01-11T12:33:00;101666.89;;;2.08;80.41
76229;BME280;65021;53.174;18.160;2024-01-11T12:35:31;101675.30;;;2.14;80.22
76229;BME280;65021;53.174;18.160;2024-01-11T12:38:03;101677.14;;;2.11;80.04
76229;BME280;65021;53.174;18.160;2024-01-11T12:40:33;101680.88;;;2.06;80.38
76229;BME280;65021;53.174;18.160;2024-01-11T12:43:11;101687.84;;;2.01;80.45
76229;BME280;65021;53.174;18.160;2024-01-11T12:45:38;101690.95;;;1.96;80.48
76229;BME280;65021;53.174;18.160;2024-01-11T12:48:08;101692.04;;;1.94;80.54